sensor_id;sensor_type;location;lat;lon;timestamp;P1;durP1;ratioP1;P2;durP2;ratioP2
52360;SDS011;38294;42.966;1.608;2022-08-19T05:02:04;9.95;;;3.97;;
52360;SDS011;38294;42.966;1.608;2022-08-19T05:04:31;10.43;;;4.38;;
52360;SDS011;38294;42.966;1.608;2022-08-19T05:06:57;10.00;;;4.78;;
52360;SDS011;38294;42.966;1.608;2022-08-19T05:09:23;9.65;;;4.45;;
52360;SDS011;38294;42.966;1.608;2022-08-19T05:11:49;6.40;;;4.32;;
52360;SDS011;38294;42.966;1.608;2022-08-19T05:14:17;7.78;;;4.97;;
52360;SDS011;38294;42.966;1.608;2022-08-19T05:16:44;6.95;;;4.18;;
52360;SDS011;38294;42.966;1.608;2022-08-19T05:19:10;10.10;;;4.80;;
52360;SDS011;38294;42.966;1.608;2022-08-19T05:21:54;8.57;;;3.80;;
52360;SDS011;38294;42.966;1.608;2022-08-19T05:24:38;8.25;;;4.15;;
52360;SDS011;38294;42.966;1.608;2022-08-19T05:27:04;8.60;;;4.47;;
52360;SDS011;38294;42.966;1.608;2022-08-19T05:29:30;9.63;;;3.40;;
52360;SDS011;38294;42.966;1.608;2022-08-19T05:31:58;7.20;;;3.25;;
52360;SDS011;38294;42.966;1.608;2022-08-19T05:34:24;6.78;;;3.90;;
52360;SDS011;38294;42.966;1.608;2022-08-19T05:36:52;9.95;;;3.55;;
52360;SDS011;38294;42.966;1.608;2022-08-19T05:39:21;7.00;;;3.58;;
52360;SDS011;38294;42.966;1.608;2022-08-19T05:41:49;7.75;;;3.90;;
52360;SDS011;38294;42.966;1.608;2022-08-19T05:44:25;12.30;;;4.18;;
52360;SDS011;38294;42.966;1.608;2022-08-19T05:46:52;7.03;;;3.30;;
52360;SDS011;38294;42.966;1.608;2022-08-19T05:49:19;8.63;;;3.45;;
52360;SDS011;38294;42.966;1.608;2022-08-19T05:51:46;9.30;;;3.45;;
52360;SDS011;38294;42.966;1.608;2022-08-19T05:54:12;8.55;;;3.38;;
52360;SDS011;38294;42.966;1.608;2022-08-19T05:56:39;7.07;;;5.22;;
52360;SDS011;38294;42.966;1.608;2022-08-19T05:59:06;10.90;;;4.03;;
52360;SDS011;38294;42.966;1.608;2022-08-19T06:01:34;8.45;;;3.78;;
52360;SDS011;38294;42.966;1.608;2022-08-19T06:04:01;7.68;;;3.80;;
52360;SDS011;38294;42.966;1.608;2022-08-19T06:06:27;4.05;;;3.00;;
52360;SDS011;38294;42.966;1.608;2022-08-19T06:08:53;8.38;;;3.63;;
52360;SDS011;38294;42.966;1.608;2022-08-19T06:11:23;9.05;;;4.00;;
52360;SDS011;38294;42.966;1.608;2022-08-19T06:13:57;8.70;;;3.35;;
52360;SDS011;38294;42.966;1.608;2022-08-19T06:16:27;8.43;;;4.30;;
52360;SDS011;38294;42.966;1.608;2022-08-19T06:18:53;6.28;;;3.40;;
52360;SDS011;38294;42.966;1.608;2022-08-19T06:21:22;7.40;;;3.80;;
52360;SDS011;38294;42.966;1.608;2022-08-19T06:23:50;8.23;;;4.00;;
52360;SDS011;38294;42.966;1.608;2022-08-19T06:26:17;6.25;;;3.35;;
52360;SDS011;38294;42.966;1.608;2022-08-19T06:28:44;6.45;;;4.55;;
52360;SDS011;38294;42.966;1.608;2022-08-19T06:31:15;6.93;;;3.40;;
52360;SDS011;38294;42.966;1.608;2022-08-19T06:33:46;6.32;;;3.40;;
52360;SDS011;38294;42.966;1.608;2022-08-19T06:36:19;7.65;;;3.63;;
52360;SDS011;38294;42.966;1.608;2022-08-19T06:38:45;5.72;;;3.50;;
52360;SDS011;38294;42.966;1.608;2022-08-19T06:41:10;6.15;;;3.40;;
52360;SDS011;38294;42.966;1.608;2022-08-19T06:43:36;9.63;;;3.60;;
52360;SDS011;38294;42.966;1.608;2022-08-19T06:46:03;7.78;;;3.45;;
52360;SDS011;38294;42.966;1.608;2022-08-19T06:48:29;5.72;;;3.35;;
52360;SDS011;38294;42.966;1.608;2022-08-19T06:50:55;10.02;;;3.70;;
52360;SDS011;38294;42.966;1.608;2022-08-19T06:53:21;5.93;;;3.20;;
52360;SDS011;38294;42.966;1.608;2022-08-19T06:55:47;5.40;;;3.20;;
52360;SDS011;38294;42.966;1.608;2022-08-19T06:58:12;4.90;;;3.00;;
52360;SDS011;38294;42.966;1.608;2022-08-19T07:00:39;6.97;;;2.90;;
52360;SDS011;38294;42.966;1.608;2022-08-19T07:03:05;5.40;;;3.15;;
52360;SDS011;38294;42.966;1.608;2022-08-19T07:05:30;5.75;;;3.10;;
52360;SDS011;38294;42.966;1.608;2022-08-19T07:07:56;6.93;;;2.95;;
52360;SDS011;38294;42.966;1.608;2022-08-19T07:10:22;4.80;;;3.22;;
52360;SDS011;38294;42.966;1.608;2022-08-19T07:12:48;7.05;;;3.17;;
52360;SDS011;38294;42.966;1.608;2022-08-19T07:15:15;6.43;;;2.95;;
52360;SDS011;38294;42.966;1.608;2022-08-19T07:17:41;5.78;;;3.70;;
52360;SDS011;38294;42.966;1.608;2022-08-19T07:20:09;5.20;;;2.80;;
52360;SDS011;38294;42.966;1.608;2022-08-19T07:22:35;5.82;;;2.95;;
52360;SDS011;38294;42.966;1.608;2022-08-19T07:25:02;3.72;;;2.92;;
52360;SDS011;38294;42.966;1.608;2022-08-19T07:27:30;5.18;;;2.85;;
52360;SDS011;38294;42.966;1.608;2022-08-19T07:29:56;5.57;;;2.67;;
52360;SDS011;38294;42.966;1.608;2022-08-19T07:32:21;6.22;;;2.78;;
52360;SDS011;38294;42.966;1.608;2022-08-19T07:34:47;7.05;;;3.25;;
52360;SDS011;38294;42.966;1.608;2022-08-19T07:37:13;7.50;;;3.80;;
52360;SDS011;38294;42.966;1.608;2022-08-19T07:39:38;9.05;;;7.00;;
52360;SDS011;38294;42.966;1.608;2022-08-19T07:42:06;5.63;;;3.30;;
52360;SDS011;38294;42.966;1.608;2022-08-19T07:44:34;3.53;;;2.33;;
52360;SDS011;38294;42.966;1.608;2022-08-19T07:47:00;5.07;;;2.65;;
52360;SDS011;38294;42.966;1.608;2022-08-19T07:49:26;3.13;;;2.20;;
52360;SDS011;38294;42.966;1.608;2022-08-19T07:51:54;2.10;;;1.90;;
52360;SDS011;38294;42.966;1.608;2022-08-19T07:54:30;1.33;;;1.20;;
52360;SDS011;38294;42.966;1.608;2022-08-19T07:57:01;1.50;;;1.20;;
52360;SDS011;38294;42.966;1.608;2022-08-19T07:59:28;1.38;;;1.05;;
52360;SDS011;38294;42.966;1.608;2022-08-19T08:01:54;1.30;;;1.08;;
52360;SDS011;38294;42.966;1.608;2022-08-19T08:04:20;1.60;;;1.40;;
52360;SDS011;38294;42.966;1.608;2022-08-19T08:07:05;0.90;;;0.80;;
52360;SDS011;38294;42.966;1.608;2022-08-19T08:09:52;1.20;;;1.08;;
52360;SDS011;38294;42.966;1.608;2022-08-19T08:12:23;4.93;;;1.30;;
52360;SDS011;38294;42.966;1.608;2022-08-19T08:14:56;0.55;;;0.55;;
52360;SDS011;38294;42.966;1.608;2022-08-19T08:17:28;1.13;;;1.05;;
52360;SDS011;38294;42.966;1.608;2022-08-19T08:19:54;1.05;;;0.90;;
52360;SDS011;38294;42.966;1.608;2022-08-19T08:22:21;0.65;;;0.65;;
52360;SDS011;38294;42.966;1.608;2022-08-19T08:25:07;0.70;;;0.70;;
52360;SDS011;38294;42.966;1.608;2022-08-19T08:27:37;1.27;;;0.80;;
52360;SDS011;38294;42.966;1.608;2022-08-19T08:30:05;1.35;;;0.70;;
52360;SDS011;38294;42.966;1.608;2022-08-19T08:32:34;2.13;;;1.20;;
52360;SDS011;38294;42.966;1.608;2022-08-19T08:35:02;1.20;;;1.10;;
52360;SDS011;38294;42.966;1.608;2022-08-19T08:37:29;4.13;;;1.52;;
52360;SDS011;38294;42.966;1.608;2022-08-19T08:39:55;3.55;;;1.50;;
52360;SDS011;38294;42.966;1.608;2022-08-19T08:42:22;2.00;;;1.63;;
52360;SDS011;38294;42.966;1.608;2022-08-19T08:47:31;3.20;;;1.50;;
52360;SDS011;38294;42.966;1.608;2022-08-19T08:50:08;2.13;;;1.58;;
52360;SDS011;38294;42.966;1.608;2022-08-19T08:52:43;2.35;;;1.40;;
52360;SDS011;38294;42.966;1.608;2022-08-19T08:55:14;2.72;;;1.67;;
52360;SDS011;38294;42.966;1.608;2022-08-19T09:00:25;2.33;;;1.70;;
52360;SDS011;38294;42.966;1.608;2022-08-19T09:02:56;4.38;;;1.73;;
52360;SDS011;38294;42.966;1.608;2022-08-19T09:05:26;2.63;;;1.58;;
52360;SDS011;38294;42.966;1.608;2022-08-19T09:08:15;2.85;;;1.63;;
52360;SDS011;38294;42.966;1.608;2022-08-19T09:10:51;8.30;;;2.45;;
52360;SDS011;38294;42.966;1.608;2022-08-19T09:16:01;4.18;;;1.90;;
52360;SDS011;38294;42.966;1.608;2022-08-19T09:18:46;3.83;;;2.00;;
52360;SDS011;38294;42.966;1.608;2022-08-19T09:23:42;5.63;;;1.95;;
52360;SDS011;38294;42.966;1.608;2022-08-19T09:26:09;5.18;;;1.70;;
52360;SDS011;38294;42.966;1.608;2022-08-19T09:28:39;4.88;;;1.65;;
52360;SDS011;38294;42.966;1.608;2022-08-19T09:31:19;3.37;;;1.60;;
52360;SDS011;38294;42.966;1.608;2022-08-19T09:33:48;4.63;;;1.88;;
52360;SDS011;38294;42.966;1.608;2022-08-19T09:36:16;1.67;;;1.50;;
52360;SDS011;38294;42.966;1.608;2022-08-19T09:38:45;4.10;;;1.87;;
52360;SDS011;38294;42.966;1.608;2022-08-19T09:41:12;2.38;;;1.63;;
52360;SDS011;38294;42.966;1.608;2022-08-19T09:43:40;2.38;;;1.70;;
52360;SDS011;38294;42.966;1.608;2022-08-19T09:46:07;2.70;;;1.60;;
52360;SDS011;38294;42.966;1.608;2022-08-19T09:48:37;3.83;;;1.40;;
52360;SDS011;38294;42.966;1.608;2022-08-19T09:51:22;3.80;;;1.45;;
52360;SDS011;38294;42.966;1.608;2022-08-19T09:53:50;2.38;;;1.40;;
52360;SDS011;38294;42.966;1.608;2022-08-19T09:56:17;2.00;;;1.30;;
52360;SDS011;38294;42.966;1.608;2022-08-19T09:58:43;2.30;;;1.30;;
52360;SDS011;38294;42.966;1.608;2022-08-19T10:01:14;3.40;;;1.13;;
52360;SDS011;38294;42.966;1.608;2022-08-19T10:03:41;2.28;;;1.35;;
52360;SDS011;38294;42.966;1.608;2022-08-19T10:06:07;2.25;;;1.20;;
52360;SDS011;38294;42.966;1.608;2022-08-19T10:08:35;1.90;;;1.20;;
52360;SDS011;38294;42.966;1.608;2022-08-19T10:11:02;3.55;;;1.20;;
52360;SDS011;38294;42.966;1.608;2022-08-19T10:13:29;1.98;;;1.42;;
52360;SDS011;38294;42.966;1.608;2022-08-19T10:16:01;1.60;;;1.05;;
52360;SDS011;38294;42.966;1.608;2022-08-19T10:18:30;1.25;;;1.05;;
52360;SDS011;38294;42.966;1.608;2022-08-19T10:21:04;1.77;;;1.20;;
52360;SDS011;38294;42.966;1.608;2022-08-19T10:23:39;1.70;;;1.10;;
52360;SDS011;38294;42.966;1.608;2022-08-19T10:26:11;1.70;;;1.10;;
52360;SDS011;38294;42.966;1.608;2022-08-19T10:28:46;2.30;;;1.10;;
52360;SDS011;38294;42.966;1.608;2022-08-19T10:31:16;3.58;;;1.77;;
52360;SDS011;38294;42.966;1.608;2022-08-19T10:33:45;2.95;;;0.90;;
52360;SDS011;38294;42.966;1.608;2022-08-19T10:36:14;2.15;;;1.50;;
52360;SDS011;38294;42.966;1.608;2022-08-19T10:38:49;4.32;;;1.45;;
52360;SDS011;38294;42.966;1.608;2022-08-19T10:46:15;3.35;;;1.30;;
52360;SDS011;38294;42.966;1.608;2022-08-19T10:48:42;1.95;;;1.30;;
52360;SDS011;38294;42.966;1.608;2022-08-19T10:51:08;2.75;;;1.00;;
52360;SDS011;38294;42.966;1.608;2022-08-19T10:53:54;1.27;;;0.90;;
52360;SDS011;38294;42.966;1.608;2022-08-19T10:56:20;3.65;;;1.42;;
52360;SDS011;38294;42.966;1.608;2022-08-19T10:59:05;3.28;;;1.23;;
52360;SDS011;38294;42.966;1.608;2022-08-19T11:01:31;3.17;;;1.20;;
52360;SDS011;38294;42.966;1.608;2022-08-19T11:04:02;1.23;;;1.10;;
52360;SDS011;38294;42.966;1.608;2022-08-19T11:06:31;2.47;;;0.88;;
52360;SDS011;38294;42.966;1.608;2022-08-19T11:08:57;3.25;;;1.30;;
52360;SDS011;38294;42.966;1.608;2022-08-19T11:11:23;2.28;;;1.60;;
52360;SDS011;38294;42.966;1.608;2022-08-19T11:13:49;2.03;;;0.82;;
52360;SDS011;38294;42.966;1.608;2022-08-19T11:16:17;1.00;;;0.85;;
52360;SDS011;38294;42.966;1.608;2022-08-19T11:18:51;2.35;;;1.13;;
52360;SDS011;38294;42.966;1.608;2022-08-19T11:21:20;2.60;;;1.00;;
52360;SDS011;38294;42.966;1.608;2022-08-19T11:23:49;2.78;;;0.80;;
52360;SDS011;38294;42.966;1.608;2022-08-19T11:26:17;1.92;;;1.08;;
52360;SDS011;38294;42.966;1.608;2022-08-19T11:28:44;1.17;;;0.90;;
52360;SDS011;38294;42.966;1.608;2022-08-19T11:31:15;4.30;;;1.20;;
52360;SDS011;38294;42.966;1.608;2022-08-19T11:33:43;1.42;;;1.00;;
52360;SDS011;38294;42.966;1.608;2022-08-19T11:36:09;3.47;;;1.50;;
52360;SDS011;38294;42.966;1.608;2022-08-19T11:38:35;2.35;;;1.10;;
52360;SDS011;38294;42.966;1.608;2022-08-19T11:41:02;2.60;;;0.98;;
52360;SDS011;38294;42.966;1.608;2022-08-19T11:43:30;2.97;;;0.85;;
52360;SDS011;38294;42.966;1.608;2022-08-19T11:45:56;0.75;;;0.60;;
52360;SDS011;38294;42.966;1.608;2022-08-19T11:48:23;0.70;;;0.70;;
52360;SDS011;38294;42.966;1.608;2022-08-19T11:50:49;1.85;;;1.00;;
52360;SDS011;38294;42.966;1.608;2022-08-19T11:53:16;2.50;;;0.95;;
52360;SDS011;38294;42.966;1.608;2022-08-19T11:55:45;2.53;;;0.90;;
52360;SDS011;38294;42.966;1.608;2022-08-19T11:58:12;1.13;;;1.00;;
52360;SDS011;38294;42.966;1.608;2022-08-19T12:00:39;1.52;;;1.00;;
52360;SDS011;38294;42.966;1.608;2022-08-19T12:03:05;0.93;;;0.90;;
52360;SDS011;38294;42.966;1.608;2022-08-19T12:05:31;1.50;;;1.10;;
52360;SDS011;38294;42.966;1.608;2022-08-19T12:07:57;3.05;;;0.98;;
52360;SDS011;38294;42.966;1.608;2022-08-19T12:10:23;1.35;;;0.75;;
52360;SDS011;38294;42.966;1.608;2022-08-19T12:12:49;1.95;;;1.00;;
52360;SDS011;38294;42.966;1.608;2022-08-19T12:15:14;2.08;;;1.00;;
52360;SDS011;38294;42.966;1.608;2022-08-19T12:17:40;2.45;;;1.00;;
52360;SDS011;38294;42.966;1.608;2022-08-19T12:20:07;1.38;;;0.80;;
52360;SDS011;38294;42.966;1.608;2022-08-19T12:22:37;1.77;;;1.10;;
52360;SDS011;38294;42.966;1.608;2022-08-19T12:25:03;1.77;;;1.10;;
52360;SDS011;38294;42.966;1.608;2022-08-19T12:27:30;1.90;;;0.85;;
52360;SDS011;38294;42.966;1.608;2022-08-19T12:29:55;1.83;;;1.00;;
52360;SDS011;38294;42.966;1.608;2022-08-19T12:32:22;2.78;;;1.00;;
52360;SDS011;38294;42.966;1.608;2022-08-19T12:34:49;1.40;;;1.00;;
52360;SDS011;38294;42.966;1.608;2022-08-19T12:37:15;1.90;;;1.20;;
52360;SDS011;38294;42.966;1.608;2022-08-19T12:39:42;2.28;;;1.10;;
52360;SDS011;38294;42.966;1.608;2022-08-19T12:42:09;2.63;;;1.40;;
52360;SDS011;38294;42.966;1.608;2022-08-19T12:44:36;2.75;;;1.10;;
52360;SDS011;38294;42.966;1.608;2022-08-19T12:47:04;3.50;;;2.28;;
52360;SDS011;38294;42.966;1.608;2022-08-19T12:49:30;2.15;;;1.08;;
52360;SDS011;38294;42.966;1.608;2022-08-19T12:51:59;1.83;;;1.00;;
52360;SDS011;38294;42.966;1.608;2022-08-19T12:54:28;2.50;;;1.17;;
52360;SDS011;38294;42.966;1.608;2022-08-19T12:56:56;2.42;;;1.17;;
52360;SDS011;38294;42.966;1.608;2022-08-19T12:59:22;0.90;;;0.85;;
52360;SDS011;38294;42.966;1.608;2022-08-19T13:01:47;2.72;;;0.90;;
52360;SDS011;38294;42.966;1.608;2022-08-19T13:04:13;1.50;;;0.77;;
52360;SDS011;38294;42.966;1.608;2022-08-19T13:06:40;1.45;;;0.90;;
52360;SDS011;38294;42.966;1.608;2022-08-19T13:09:07;1.65;;;1.00;;
52360;SDS011;38294;42.966;1.608;2022-08-19T13:11:33;1.77;;;1.10;;
52360;SDS011;38294;42.966;1.608;2022-08-19T13:13:59;2.40;;;1.00;;
52360;SDS011;38294;42.966;1.608;2022-08-19T13:16:27;1.42;;;0.90;;
52360;SDS011;38294;42.966;1.608;2022-08-19T13:18:54;1.63;;;0.90;;
52360;SDS011;38294;42.966;1.608;2022-08-19T13:21:21;2.30;;;1.08;;
52360;SDS011;38294;42.966;1.608;2022-08-19T13:23:49;2.08;;;1.23;;
52360;SDS011;38294;42.966;1.608;2022-08-19T13:26:15;2.28;;;1.17;;
52360;SDS011;38294;42.966;1.608;2022-08-19T13:28:42;1.10;;;1.00;;
52360;SDS011;38294;42.966;1.608;2022-08-19T13:31:27;1.88;;;1.10;;
52360;SDS011;38294;42.966;1.608;2022-08-19T13:34:14;1.25;;;1.02;;
52360;SDS011;38294;42.966;1.608;2022-08-19T13:36:41;4.70;;;1.50;;
52360;SDS011;38294;42.966;1.608;2022-08-19T13:39:07;2.25;;;0.90;;
52360;SDS011;38294;42.966;1.608;2022-08-19T13:41:34;1.13;;;1.00;;
52360;SDS011;38294;42.966;1.608;2022-08-19T13:44:01;1.55;;;1.00;;
52360;SDS011;38294;42.966;1.608;2022-08-19T13:46:27;3.35;;;1.08;;
52360;SDS011;38294;42.966;1.608;2022-08-19T13:48:54;1.50;;;1.08;;
52360;SDS011;38294;42.966;1.608;2022-08-19T13:51:21;1.23;;;0.70;;
52360;SDS011;38294;42.966;1.608;2022-08-19T13:53:47;3.05;;;2.38;;
52360;SDS011;38294;42.966;1.608;2022-08-19T13:56:14;2.53;;;1.30;;
52360;SDS011;38294;42.966;1.608;2022-08-19T13:58:42;1.58;;;1.00;;
52360;SDS011;38294;42.966;1.608;2022-08-19T14:01:08;2.60;;;0.90;;
52360;SDS011;38294;42.966;1.608;2022-08-19T14:03:35;4.60;;;0.90;;
52360;SDS011;38294;42.966;1.608;2022-08-19T14:06:02;1.17;;;0.80;;
52360;SDS011;38294;42.966;1.608;2022-08-19T14:08:28;1.20;;;0.85;;
52360;SDS011;38294;42.966;1.608;2022-08-19T14:10:55;2.58;;;0.90;;
52360;SDS011;38294;42.966;1.608;2022-08-19T14:13:21;1.52;;;0.82;;
52360;SDS011;38294;42.966;1.608;2022-08-19T14:15:48;0.65;;;0.65;;
52360;SDS011;38294;42.966;1.608;2022-08-19T14:18:15;1.90;;;0.93;;
52360;SDS011;38294;42.966;1.608;2022-08-19T14:20:42;1.88;;;1.05;;
52360;SDS011;38294;42.966;1.608;2022-08-19T14:23:08;4.72;;;1.40;;
52360;SDS011;38294;42.966;1.608;2022-08-19T14:25:34;1.58;;;1.00;;
52360;SDS011;38294;42.966;1.608;2022-08-19T14:28:00;1.65;;;0.85;;
52360;SDS011;38294;42.966;1.608;2022-08-19T14:30:27;2.17;;;1.17;;
52360;SDS011;38294;42.966;1.608;2022-08-19T14:32:55;1.70;;;0.82;;
52360;SDS011;38294;42.966;1.608;2022-08-19T14:35:23;1.20;;;0.80;;
52360;SDS011;38294;42.966;1.608;2022-08-19T14:37:49;1.65;;;0.88;;
52360;SDS011;38294;42.966;1.608;2022-08-19T14:40:20;2.30;;;1.10;;
52360;SDS011;38294;42.966;1.608;2022-08-19T14:42:46;1.80;;;1.02;;
52360;SDS011;38294;42.966;1.608;2022-08-19T14:45:13;2.05;;;1.00;;
52360;SDS011;38294;42.966;1.608;2022-08-19T14:47:39;1.02;;;0.85;;
52360;SDS011;38294;42.966;1.608;2022-08-19T14:50:06;1.92;;;1.00;;
52360;SDS011;38294;42.966;1.608;2022-08-19T14:52:33;1.35;;;0.90;;
52360;SDS011;38294;42.966;1.608;2022-08-19T14:54:59;2.42;;;1.13;;
52360;SDS011;38294;42.966;1.608;2022-08-19T14:57:24;2.47;;;0.80;;
52360;SDS011;38294;42.966;1.608;2022-08-19T14:59:50;1.92;;;0.80;;
52360;SDS011;38294;42.966;1.608;2022-08-19T15:02:16;0.95;;;0.70;;
52360;SDS011;38294;42.966;1.608;2022-08-19T15:04:41;1.00;;;0.80;;
52360;SDS011;38294;42.966;1.608;2022-08-19T15:07:08;1.35;;;0.70;;
52360;SDS011;38294;42.966;1.608;2022-08-19T15:09:34;1.70;;;1.00;;
52360;SDS011;38294;42.966;1.608;2022-08-19T15:12:00;1.48;;;0.82;;
52360;SDS011;38294;42.966;1.608;2022-08-19T15:14:27;2.20;;;1.00;;
52360;SDS011;38294;42.966;1.608;2022-08-19T15:16:58;1.58;;;0.80;;
52360;SDS011;38294;42.966;1.608;2022-08-19T15:19:24;2.58;;;1.13;;
52360;SDS011;38294;42.966;1.608;2022-08-19T15:21:50;1.20;;;0.70;;
52360;SDS011;38294;42.966;1.608;2022-08-19T15:24:15;2.40;;;1.20;;
52360;SDS011;38294;42.966;1.608;2022-08-19T15:26:41;2.15;;;0.90;;
52360;SDS011;38294;42.966;1.608;2022-08-19T15:29:07;2.53;;;1.10;;
52360;SDS011;38294;42.966;1.608;2022-08-19T15:31:33;1.98;;;1.00;;
52360;SDS011;38294;42.966;1.608;2022-08-19T15:34:01;1.90;;;1.00;;
52360;SDS011;38294;42.966;1.608;2022-08-19T15:36:26;3.00;;;1.25;;
52360;SDS011;38294;42.966;1.608;2022-08-19T15:38:53;1.35;;;0.80;;
52360;SDS011;38294;42.966;1.608;2022-08-19T15:41:23;2.47;;;1.08;;
52360;SDS011;38294;42.966;1.608;2022-08-19T15:46:28;1.52;;;1.00;;
52360;SDS011;38294;42.966;1.608;2022-08-19T15:48:56;2.25;;;1.15;;
52360;SDS011;38294;42.966;1.608;2022-08-19T15:51:22;1.98;;;0.90;;
52360;SDS011;38294;42.966;1.608;2022-08-19T15:53:49;3.08;;;1.30;;
52360;SDS011;38294;42.966;1.608;2022-08-19T15:56:15;1.75;;;1.20;;
52360;SDS011;38294;42.966;1.608;2022-08-19T15:58:41;1.77;;;1.10;;
52360;SDS011;38294;42.966;1.608;2022-08-19T16:01:25;2.17;;;1.00;;
52360;SDS011;38294;42.966;1.608;2022-08-19T16:04:10;7.45;;;1.30;;
52360;SDS011;38294;42.966;1.608;2022-08-19T16:06:55;1.52;;;0.98;;
52360;SDS011;38294;42.966;1.608;2022-08-19T16:09:23;1.75;;;1.33;;
52360;SDS011;38294;42.966;1.608;2022-08-19T16:11:53;2.95;;;0.98;;
52360;SDS011;38294;42.966;1.608;2022-08-19T16:14:20;2.05;;;1.23;;
52360;SDS011;38294;42.966;1.608;2022-08-19T16:16:45;1.95;;;1.40;;
52360;SDS011;38294;42.966;1.608;2022-08-19T16:19:12;1.52;;;1.00;;
52360;SDS011;38294;42.966;1.608;2022-08-19T16:21:45;4.18;;;2.50;;
52360;SDS011;38294;42.966;1.608;2022-08-19T16:24:13;3.55;;;2.30;;
52360;SDS011;38294;42.966;1.608;2022-08-19T16:26:42;2.55;;;1.25;;
52360;SDS011;38294;42.966;1.608;2022-08-19T16:29:08;3.85;;;1.30;;
52360;SDS011;38294;42.966;1.608;2022-08-19T16:31:34;1.85;;;1.40;;
52360;SDS011;38294;42.966;1.608;2022-08-19T16:34:01;2.85;;;1.58;;
52360;SDS011;38294;42.966;1.608;2022-08-19T16:36:27;4.50;;;1.20;;
52360;SDS011;38294;42.966;1.608;2022-08-19T16:38:53;3.55;;;1.50;;
52360;SDS011;38294;42.966;1.608;2022-08-19T16:41:19;2.30;;;1.60;;
52360;SDS011;38294;42.966;1.608;2022-08-19T16:43:46;2.28;;;1.35;;
52360;SDS011;38294;42.966;1.608;2022-08-19T16:46:16;3.53;;;1.40;;
52360;SDS011;38294;42.966;1.608;2022-08-19T16:48:42;1.85;;;1.40;;
52360;SDS011;38294;42.966;1.608;2022-08-19T16:51:09;1.55;;;1.30;;
52360;SDS011;38294;42.966;1.608;2022-08-19T16:53:36;1.75;;;1.13;;
52360;SDS011;38294;42.966;1.608;2022-08-19T16:56:02;3.38;;;1.40;;
52360;SDS011;38294;42.966;1.608;2022-08-19T16:58:29;4.90;;;1.55;;
52360;SDS011;38294;42.966;1.608;2022-08-19T17:00:58;1.58;;;1.48;;
52360;SDS011;38294;42.966;1.608;2022-08-19T17:03:26;1.27;;;1.13;;
52360;SDS011;38294;42.966;1.608;2022-08-19T17:05:54;4.00;;;1.80;;
52360;SDS011;38294;42.966;1.608;2022-08-19T17:08:22;4.15;;;1.30;;
52360;SDS011;38294;42.966;1.608;2022-08-19T17:10:51;2.42;;;1.25;;
52360;SDS011;38294;42.966;1.608;2022-08-19T17:13:21;1.77;;;1.13;;
52360;SDS011;38294;42.966;1.608;2022-08-19T17:15:48;2.97;;;1.40;;
52360;SDS011;38294;42.966;1.608;2022-08-19T17:18:15;2.97;;;1.80;;
52360;SDS011;38294;42.966;1.608;2022-08-19T17:20:41;2.67;;;1.50;;
52360;SDS011;38294;42.966;1.608;2022-08-19T17:23:07;2.50;;;1.55;;
52360;SDS011;38294;42.966;1.608;2022-08-19T17:25:34;2.13;;;1.60;;
52360;SDS011;38294;42.966;1.608;2022-08-19T17:28:07;4.57;;;1.63;;
52360;SDS011;38294;42.966;1.608;2022-08-19T17:30:41;3.10;;;1.70;;
52360;SDS011;38294;42.966;1.608;2022-08-19T17:33:07;4.28;;;1.60;;
52360;SDS011;38294;42.966;1.608;2022-08-19T17:35:33;6.15;;;1.58;;
52360;SDS011;38294;42.966;1.608;2022-08-19T17:38:03;2.63;;;1.80;;
52360;SDS011;38294;42.966;1.608;2022-08-19T17:40:30;3.40;;;1.40;;
52360;SDS011;38294;42.966;1.608;2022-08-19T17:42:56;3.20;;;1.60;;
52360;SDS011;38294;42.966;1.608;2022-08-19T17:45:22;4.63;;;1.73;;
52360;SDS011;38294;42.966;1.608;2022-08-19T17:47:48;2.88;;;1.70;;
52360;SDS011;38294;42.966;1.608;2022-08-19T17:50:14;3.00;;;1.80;;
52360;SDS011;38294;42.966;1.608;2022-08-19T17:52:40;3.58;;;1.60;;
52360;SDS011;38294;42.966;1.608;2022-08-19T17:55:08;4.22;;;1.90;;
52360;SDS011;38294;42.966;1.608;2022-08-19T17:57:34;2.85;;;1.80;;
52360;SDS011;38294;42.966;1.608;2022-08-19T18:00:02;5.60;;;2.03;;
52360;SDS011;38294;42.966;1.608;2022-08-19T18:02:29;3.15;;;2.03;;
52360;SDS011;38294;42.966;1.608;2022-08-19T18:04:54;2.53;;;1.80;;
52360;SDS011;38294;42.966;1.608;2022-08-19T18:07:20;3.33;;;2.05;;
52360;SDS011;38294;42.966;1.608;2022-08-19T18:09:46;3.40;;;2.17;;
52360;SDS011;38294;42.966;1.608;2022-08-19T18:12:19;3.70;;;2.40;;
52360;SDS011;38294;42.966;1.608;2022-08-19T18:14:47;3.92;;;1.98;;
52360;SDS011;38294;42.966;1.608;2022-08-19T18:17:13;4.40;;;1.90;;
52360;SDS011;38294;42.966;1.608;2022-08-19T18:19:42;2.92;;;1.80;;
52360;SDS011;38294;42.966;1.608;2022-08-19T18:22:12;4.03;;;2.08;;
52360;SDS011;38294;42.966;1.608;2022-08-19T18:24:46;3.97;;;2.47;;
52360;SDS011;38294;42.966;1.608;2022-08-19T18:27:12;3.35;;;2.22;;
52360;SDS011;38294;42.966;1.608;2022-08-19T18:29:38;4.28;;;2.20;;
52360;SDS011;38294;42.966;1.608;2022-08-19T18:32:04;3.78;;;2.45;;
52360;SDS011;38294;42.966;1.608;2022-08-19T18:34:36;4.65;;;2.50;;
52360;SDS011;38294;42.966;1.608;2022-08-19T18:37:02;6.47;;;2.45;;
52360;SDS011;38294;42.966;1.608;2022-08-19T18:39:27;4.30;;;2.50;;
52360;SDS011;38294;42.966;1.608;2022-08-19T18:42:15;4.82;;;2.30;;
52360;SDS011;38294;42.966;1.608;2022-08-19T18:45:00;4.15;;;2.80;;
52360;SDS011;38294;42.966;1.608;2022-08-19T18:47:44;2.85;;;2.15;;
52360;SDS011;38294;42.966;1.608;2022-08-19T18:50:28;4.43;;;2.28;;
52360;SDS011;38294;42.966;1.608;2022-08-19T18:52:54;3.00;;;2.20;;
52360;SDS011;38294;42.966;1.608;2022-08-19T18:55:19;2.40;;;1.77;;
52360;SDS011;38294;42.966;1.608;2022-08-19T18:57:47;3.97;;;1.92;;
52360;SDS011;38294;42.966;1.608;2022-08-19T19:00:14;3.80;;;2.20;;
52360;SDS011;38294;42.966;1.608;2022-08-19T19:02:40;4.00;;;2.47;;
52360;SDS011;38294;42.966;1.608;2022-08-19T19:05:08;4.55;;;2.25;;
52360;SDS011;38294;42.966;1.608;2022-08-19T19:07:39;4.45;;;2.28;;
52360;SDS011;38294;42.966;1.608;2022-08-19T19:10:05;4.93;;;2.10;;
52360;SDS011;38294;42.966;1.608;2022-08-19T19:12:33;4.28;;;2.22;;
52360;SDS011;38294;42.966;1.608;2022-08-19T19:15:00;3.40;;;2.25;;
52360;SDS011;38294;42.966;1.608;2022-08-19T19:17:30;5.47;;;2.60;;
52360;SDS011;38294;42.966;1.608;2022-08-19T19:19:56;5.95;;;2.30;;
52360;SDS011;38294;42.966;1.608;2022-08-19T19:22:22;5.72;;;2.28;;
52360;SDS011;38294;42.966;1.608;2022-08-19T19:24:49;4.53;;;2.10;;
52360;SDS011;38294;42.966;1.608;2022-08-19T19:27:17;6.35;;;2.55;;
52360;SDS011;38294;42.966;1.608;2022-08-19T19:29:47;4.13;;;2.35;;
52360;SDS011;38294;42.966;1.608;2022-08-19T19:32:18;3.78;;;2.47;;
52360;SDS011;38294;42.966;1.608;2022-08-19T19:34:46;3.10;;;2.20;;
52360;SDS011;38294;42.966;1.608;2022-08-19T19:37:12;4.20;;;2.50;;
52360;SDS011;38294;42.966;1.608;2022-08-19T19:39:38;5.40;;;2.50;;
52360;SDS011;38294;42.966;1.608;2022-08-19T19:42:07;5.25;;;2.45;;
52360;SDS011;38294;42.966;1.608;2022-08-19T19:44:38;3.33;;;2.50;;
52360;SDS011;38294;42.966;1.608;2022-08-19T19:47:04;6.25;;;2.55;;
52360;SDS011;38294;42.966;1.608;2022-08-19T19:49:30;4.13;;;2.28;;
52360;SDS011;38294;42.966;1.608;2022-08-19T19:51:56;4.60;;;2.28;;
52360;SDS011;38294;42.966;1.608;2022-08-19T19:54:22;3.53;;;2.40;;
52360;SDS011;38294;42.966;1.608;2022-08-19T19:56:48;8.55;;;4.40;;
52360;SDS011;38294;42.966;1.608;2022-08-19T19:59:14;4.10;;;2.97;;
52360;SDS011;38294;42.966;1.608;2022-08-19T20:01:41;5.70;;;3.53;;
52360;SDS011;38294;42.966;1.608;2022-08-19T20:04:10;3.80;;;2.72;;
52360;SDS011;38294;42.966;1.608;2022-08-19T20:06:36;3.78;;;2.72;;
52360;SDS011;38294;42.966;1.608;2022-08-19T20:09:02;4.95;;;2.53;;
52360;SDS011;38294;42.966;1.608;2022-08-19T20:14:18;5.68;;;3.05;;
52360;SDS011;38294;42.966;1.608;2022-08-19T20:16:49;4.40;;;2.58;;